Time;durP1;ratioP1;P1;durP2;ratioP2;P2;SDS_P1;SDS_P2;PMS_P1;PMS_P2;Temp;Humidity;BMP_temperature;BMP_pressure;BME280_temperature;BME280_humidity;BME280_pressure;Samples;Min_cycle;Max_cycle;Signal;HPM_P1;HPM_P2
2023/09/19 00:01:45;;;;;;;11.60;2.15;;;15.20;99.90;;;;;;5021535;28;20040;-70
2023/09/19 00:04:12;;;;;;;4.45;1.88;;;15.10;99.90;;;;;;5012038;28;20516;-70
2023/09/19 00:06:38;;;;;;;9.85;1.77;;;15.10;99.90;;;;;;5012083;28;20046;-70
2023/09/19 00:09:04;;;;;;;6.13;2.22;;;15.00;99.90;;;;;;5010887;28;20524;-70
2023/09/19 00:11:30;;;;;;;11.57;2.50;;;15.00;99.90;;;;;;5011201;28;20385;-70
2023/09/19 00:13:59;;;;;;;12.68;3.08;;;15.00;99.90;;;;;;5011940;28;20509;-70
2023/09/19 00:16:25;;;;;;;9.68;2.10;;;14.90;99.90;;;;;;5012190;28;20050;-69
2023/09/19 00:18:51;;;;;;;10.18;2.22;;;14.90;99.90;;;;;;5011839;28;20048;-69
2023/09/19 00:21:16;;;;;;;5.13;1.52;;;14.80;99.90;;;;;;5010579;28;20137;-70
2023/09/19 00:23:42;;;;;;;7.63;1.85;;;14.80;99.90;;;;;;5012163;28;20046;-69
2023/09/19 00:26:08;;;;;;;8.57;1.75;;;14.70;99.90;;;;;;4994589;28;20034;-69
2023/09/19 00:28:33;;;;;;;7.88;1.55;;;14.70;99.90;;;;;;5011701;28;20409;-69
2023/09/19 00:31:01;;;;;;;10.20;2.05;;;14.70;99.90;;;;;;5010624;28;20041;-69
2023/09/19 00:33:30;;;;;;;8.80;1.95;;;14.60;99.90;;;;;;5011801;28;20064;-69
2023/09/19 00:35:57;;;;;;;12.77;2.03;;;14.60;99.90;;;;;;5012090;28;20050;-69
2023/09/19 00:38:26;;;;;;;10.70;2.38;;;14.60;99.90;;;;;;5010407;28;20046;-69
2023/09/19 00:40:53;;;;;;;5.97;1.85;;;14.60;99.90;;;;;;5011774;28;20050;-69
2023/09/19 00:43:19;;;;;;;6.45;1.60;;;14.50;99.90;;;;;;5010489;28;20092;-69
2023/09/19 00:45:48;;;;;;;9.93;3.03;;;14.50;99.90;;;;;;5011505;28;20053;-69
2023/09/19 00:48:14;;;;;;;7.88;1.70;;;14.50;99.90;;;;;;5010279;28;20092;-69
2023/09/19 00:50:42;;;;;;;8.27;2.88;;;14.50;99.90;;;;;;5011747;28;20049;-69
2023/09/19 00:53:13;;;;;;;9.82;1.90;;;14.40;99.90;;;;;;5010951;28;20494;-69
2023/09/19 00:55:40;;;;;;;12.75;1.88;;;14.40;99.90;;;;;;5010386;28;20041;-70
2023/09/19 00:58:07;;;;;;;10.25;1.70;;;14.40;99.90;;;;;;5011650;28;20046;-69
2023/09/19 01:00:33;;;;;;;9.50;1.85;;;14.30;99.90;;;;;;5010282;28;20042;-69
2023/09/19 01:03:01;;;;;;;9.77;2.00;;;14.40;99.90;;;;;;5010325;28;20532;-69
2023/09/19 01:05:28;;;;;;;8.98;2.40;;;14.30;99.90;;;;;;5011591;28;20057;-70
2023/09/19 01:07:53;;;;;;;9.43;3.45;;;14.30;99.90;;;;;;5011683;28;20034;-69
2023/09/19 01:10:20;;;;;;;7.72;1.98;;;14.30;99.90;;;;;;5010230;28;20129;-69
2023/09/19 01:13:08;;;;;;;9.15;2.97;;;14.30;99.90;;;;;;5010178;28;20045;-69
2023/09/19 01:15:39;;;;;;;8.18;1.85;;;14.30;99.90;;;;;;5011466;28;20052;-69
2023/09/19 01:18:30;;;;;;;13.25;2.40;;;14.20;99.90;;;;;;5010464;28;20057;-69
2023/09/19 01:21:05;;;;;;;7.88;1.85;;;14.20;99.90;;;;;;5011343;28;20037;-69
2023/09/19 01:24:06;;;;;;;9.90;1.90;;;14.20;99.90;;;;;;5010298;28;20392;-69
2023/09/19 01:26:52;;;;;;;11.13;2.58;;;14.20;99.90;;;;;;5011291;28;20050;-69
2023/09/19 01:29:39;;;;;;;5.93;1.90;;;14.10;99.90;;;;;;5010003;28;20041;-69
2023/09/19 01:32:05;;;;;;;12.50;2.50;;;14.00;99.90;;;;;;5012106;28;20041;-69
2023/09/19 01:34:52;;;;;;;9.65;2.20;;;14.10;99.90;;;;;;5050183;22;20052;-69
2023/09/19 01:37:25;;;;;;;7.47;2.72;;;14.00;99.90;;;;;;5054851;28;20067;-70
2023/09/19 01:40:05;;;;;;;5.63;1.60;;;14.00;99.90;;;;;;5054040;28;20072;-70
2023/09/19 01:42:57;;;;;;;8.13;2.08;;;14.00;99.90;;;;;;5054639;28;20124;-69
2023/09/19 01:45:46;;;;;;;10.27;2.78;;;13.90;99.90;;;;;;5054558;28;20048;-69
2023/09/19 01:48:20;;;;;;;10.90;3.15;;;13.90;99.90;;;;;;5054600;28;20037;-70
2023/09/19 01:51:00;;;;;;;8.80;1.95;;;13.90;99.90;;;;;;5054572;28;20112;-69
2023/09/19 01:53:45;;;;;;;9.25;1.60;;;13.90;99.90;;;;;;5036543;28;20560;-69
2023/09/19 01:56:21;;;;;;;5.55;1.60;;;13.80;99.90;;;;;;5054398;28;20047;-69
2023/09/19 01:58:52;;;;;;;8.68;3.08;;;13.80;99.90;;;;;;5053810;28;20041;-70
2023/09/19 02:01:22;;;;;;;12.73;2.70;;;13.80;99.90;;;;;;5054174;28;20045;-69
2023/09/19 02:03:50;;;;;;;7.95;2.30;;;13.80;99.90;;;;;;5054309;28;20040;-70
2023/09/19 02:06:18;;;;;;;9.25;2.08;;;13.80;99.90;;;;;;5054253;28;20048;-70
2023/09/19 02:08:45;;;;;;;13.18;2.45;;;13.80;99.90;;;;;;5053874;28;20041;-69
2023/09/19 02:11:11;;;;;;;8.60;2.53;;;13.80;99.90;;;;;;5054095;28;20041;-70
2023/09/19 02:13:37;;;;;;;6.32;2.45;;;13.70;99.90;;;;;;5053983;28;20037;-70
2023/09/19 02:16:04;;;;;;;8.32;1.65;;;13.80;99.90;;;;;;5036321;28;20064;-69
2023/09/19 02:18:30;;;;;;;5.72;2.20;;;13.80;99.90;;;;;;5053830;28;20531;-69
2023/09/19 02:20:58;;;;;;;8.20;2.03;;;13.80;99.90;;;;;;5036115;28;20029;-69
2023/09/19 02:23:24;;;;;;;5.60;1.70;;;13.70;99.90;;;;;;5053850;28;20041;-69
2023/09/19 02:25:53;;;;;;;9.30;2.15;;;13.70;99.90;;;;;;5053527;28;20041;-70
2023/09/19 02:28:19;;;;;;;11.77;2.25;;;13.80;99.90;;;;;;5035738;28;20037;-70
2023/09/19 02:30:48;;;;;;;8.70;2.20;;;13.70;99.90;;;;;;5053728;28;20033;-70
2023/09/19 02:33:14;;;;;;;7.55;1.58;;;13.70;99.90;;;;;;5053822;28;20048;-70
2023/09/19 02:35:40;;;;;;;10.93;2.13;;;13.70;99.90;;;;;;5053485;28;20049;-69
2023/09/19 02:38:07;;;;;;;10.50;2.15;;;13.70;99.90;;;;;;5053547;28;20478;-69
2023/09/19 02:40:35;;;;;;;7.80;1.92;;;13.70;99.90;;;;;;5035317;28;20047;-69
2023/09/19 02:43:01;;;;;;;9.65;2.25;;;13.60;99.90;;;;;;5053702;28;20041;-69
2023/09/19 02:45:27;;;;;;;7.35;2.08;;;13.60;99.90;;;;;;5052895;28;20110;-70
2023/09/19 02:47:54;;;;;;;8.73;1.80;;;13.60;99.90;;;;;;5053340;28;20389;-69
2023/09/19 02:50:20;;;;;;;6.57;2.20;;;13.50;99.90;;;;;;5035360;28;20048;-69
2023/09/19 02:52:49;;;;;;;11.27;2.05;;;13.50;99.90;;;;;;5053338;28;20033;-69
2023/09/19 02:55:19;;;;;;;11.00;2.22;;;13.50;99.90;;;;;;5053096;28;20400;-69
2023/09/19 02:57:52;;;;;;;10.18;2.55;;;13.50;99.90;;;;;;5053409;28;20033;-69
2023/09/19 03:00:22;;;;;;;5.75;1.63;;;13.50;99.90;;;;;;5034898;28;20049;-70
2023/09/19 03:02:53;;;;;;;6.60;2.67;;;13.50;99.90;;;;;;5053149;28;20118;-69
2023/09/19 03:05:19;;;;;;;9.48;2.25;;;13.50;99.90;;;;;;5052995;28;20400;-70
2023/09/19 03:07:46;;;;;;;9.32;2.40;;;13.40;99.90;;;;;;5052842;28;20037;-69
2023/09/19 03:10:14;;;;;;;5.28;2.25;;;13.50;99.90;;;;;;5035017;28;20504;-69
2023/09/19 03:12:40;;;;;;;6.90;1.92;;;13.50;99.90;;;;;;5035083;28;20056;-70
2023/09/19 03:15:08;;;;;;;7.93;2.03;;;13.50;99.90;;;;;;5053002;28;20029;-69
2023/09/19 03:17:34;;;;;;;6.88;2.38;;;13.50;99.90;;;;;;5053029;28;20049;-70
2023/09/19 03:19:59;;;;;;;7.10;2.33;;;13.50;99.90;;;;;;5052444;28;20166;-69
2023/09/19 03:22:27;;;;;;;10.93;2.40;;;13.50;99.90;;;;;;5052653;28;20044;-70
2023/09/19 03:24:53;;;;;;;5.55;2.35;;;13.50;99.90;;;;;;5052744;28;20063;-70
2023/09/19 03:27:18;;;;;;;10.75;3.13;;;13.50;99.90;;;;;;5052702;28;20563;-70
2023/09/19 03:29:44;;;;;;;8.18;2.00;;;13.50;99.90;;;;;;5052624;28;20029;-70
2023/09/19 03:32:10;;;;;;;8.23;1.92;;;13.50;99.90;;;;;;5052679;28;20450;-69
2023/09/19 03:34:43;;;;;;;7.90;2.22;;;13.50;99.90;;;;;;5052386;28;20037;-70
2023/09/19 03:37:11;;;;;;;8.65;1.60;;;13.50;99.90;;;;;;5052701;28;20052;-69
2023/09/19 03:39:37;;;;;;;8.25;2.25;;;13.40;99.90;;;;;;5052247;28;20091;-69
2023/09/19 03:42:03;;;;;;;6.30;2.15;;;13.40;99.90;;;;;;5052339;28;20439;-70
2023/09/19 03:44:30;;;;;;;11.30;2.50;;;13.40;99.90;;;;;;5052435;28;20037;-69
2023/09/19 03:46:56;;;;;;;9.70;1.95;;;13.40;99.90;;;;;;5052300;28;20045;-69
2023/09/19 03:49:22;;;;;;;6.50;1.77;;;13.40;99.90;;;;;;5051849;28;20044;-69
2023/09/19 03:51:47;;;;;;;5.78;2.30;;;13.40;99.90;;;;;;5052465;28;20067;-69
2023/09/19 03:54:13;;;;;;;6.47;1.83;;;13.40;99.90;;;;;;5052216;28;20404;-70
2023/09/19 03:56:39;;;;;;;7.65;2.47;;;13.40;99.90;;;;;;5051347;28;20043;-69
2023/09/19 03:59:04;;;;;;;7.75;1.92;;;13.30;99.90;;;;;;5051906;28;20064;-70
2023/09/19 04:01:32;;;;;;;10.18;3.55;;;13.30;99.90;;;;;;5052126;28;20041;-70
2023/09/19 04:03:58;;;;;;;10.27;2.60;;;13.30;99.90;;;;;;5034032;28;20044;-69
2023/09/19 04:06:24;;;;;;;5.63;2.80;;;13.30;99.90;;;;;;5052166;28;20079;-70
2023/09/19 04:08:49;;;;;;;10.00;2.42;;;13.30;99.90;;;;;;5051921;28;20060;-70
2023/09/19 04:11:15;;;;;;;7.85;2.08;;;13.30;99.90;;;;;;5052090;28;20045;-69
2023/09/19 04:13:41;;;;;;;6.93;1.80;;;13.30;99.90;;;;;;5051935;28;20040;-69
2023/09/19 04:16:06;;;;;;;8.88;2.25;;;13.40;99.90;;;;;;5051736;28;20242;-69
2023/09/19 04:18:37;;;;;;;7.72;2.00;;;13.40;99.90;;;;;;5051617;28;20032;-70
2023/09/19 04:21:04;;;;;;;12.18;2.60;;;13.50;99.90;;;;;;5051891;28;20693;-69
2023/09/19 04:23:29;;;;;;;8.20;2.30;;;13.50;99.90;;;;;;5033899;28;20385;-70
2023/09/19 04:25:55;;;;;;;9.07;2.30;;;13.50;99.90;;;;;;5051971;28;20079;-70
2023/09/19 04:28:20;;;;;;;8.93;2.17;;;13.40;99.90;;;;;;5051556;28;20116;-70
2023/09/19 04:30:46;;;;;;;8.82;2.30;;;13.50;99.90;;;;;;5033662;28;20090;-70
2023/09/19 04:33:14;;;;;;;5.82;2.20;;;13.50;99.90;;;;;;5051519;28;20032;-69
2023/09/19 04:35:42;;;;;;;6.50;2.55;;;13.50;99.90;;;;;;5051451;28;20235;-70
2023/09/19 04:38:08;;;;;;;6.18;2.20;;;13.50;99.90;;;;;;5051566;28;20503;-70
2023/09/19 04:40:34;;;;;;;10.82;2.45;;;13.50;99.90;;;;;;5051349;28;20053;-68
2023/09/19 04:43:00;;;;;;;12.85;2.70;;;13.60;99.90;;;;;;5051635;28;20033;-68
2023/09/19 04:45:27;;;;;;;7.38;2.17;;;13.60;99.90;;;;;;5051337;28;20102;-69
2023/09/19 04:47:54;;;;;;;14.52;3.03;;;13.60;99.90;;;;;;5051688;28;20095;-69
2023/09/19 04:50:21;;;;;;;13.10;2.10;;;13.50;99.90;;;;;;5051398;28;20029;-68
2023/09/19 04:52:50;;;;;;;9.85;2.20;;;13.50;99.90;;;;;;5017143;28;20458;-68
2023/09/19 04:55:17;;;;;;;11.32;2.55;;;13.50;99.90;;;;;;5051484;28;20132;-69
2023/09/19 04:57:44;;;;;;;9.35;1.98;;;13.60;99.90;;;;;;5051474;28;20124;-69
2023/09/19 05:00:12;;;;;;;4.28;2.03;;;13.60;99.90;;;;;;5050937;28;20087;-69
2023/09/19 05:02:39;;;;;;;6.53;2.13;;;13.60;99.90;;;;;;5051485;28;20048;-69
2023/09/19 05:05:07;;;;;;;7.10;2.10;;;13.60;99.90;;;;;;5051309;28;20036;-69
2023/09/19 05:07:34;;;;;;;7.10;2.10;;;13.60;99.90;;;;;;5035063;28;20045;-68
2023/09/19 05:09:59;;;;;;;10.80;3.83;;;13.60;99.90;;;;;;5055045;28;20033;-69
2023/09/19 05:12:27;;;;;;;8.50;3.05;;;13.70;99.90;;;;;;5037597;28;20045;-69
2023/09/19 05:14:52;;;;;;;7.53;2.55;;;13.70;99.90;;;;;;5055321;28;20056;-69
2023/09/19 05:17:19;;;;;;;11.77;1.90;;;13.70;99.90;;;;;;5037630;28;20044;-69
2023/09/19 05:19:45;;;;;;;6.70;2.35;;;13.70;99.90;;;;;;5054996;28;20235;-70
2023/09/19 05:22:12;;;;;;;7.55;2.30;;;13.70;99.90;;;;;;5055119;28;20041;-69
2023/09/19 05:24:39;;;;;;;5.43;2.38;;;13.70;99.90;;;;;;5054952;28;20044;-70
2023/09/19 05:27:07;;;;;;;6.50;2.53;;;13.70;99.90;;;;;;5054914;28;20119;-69
2023/09/19 05:29:33;;;;;;;6.40;1.90;;;13.70;99.90;;;;;;5054331;28;20381;-69
2023/09/19 05:31:59;;;;;;;3.67;1.52;;;13.70;99.90;;;;;;5055140;28;20044;-69
2023/09/19 05:34:28;;;;;;;12.18;2.35;;;13.70;99.90;;;;;;5037025;28;20530;-69
2023/09/19 05:36:54;;;;;;;10.57;2.00;;;13.70;99.90;;;;;;5054894;28;20037;-69
2023/09/19 05:39:20;;;;;;;8.73;1.92;;;13.70;99.90;;;;;;5054364;28;20191;-69
2023/09/19 05:41:47;;;;;;;8.68;2.08;;;13.70;99.90;;;;;;5054699;28;20041;-69
2023/09/19 05:44:14;;;;;;;5.05;2.28;;;13.70;99.90;;;;;;5054732;28;20037;-69
2023/09/19 05:46:39;;;;;;;9.30;2.05;;;13.80;99.90;;;;;;5036644;28;20055;-69
2023/09/19 05:49:08;;;;;;;11.43;3.17;;;13.70;99.90;;;;;;5036342;28;20033;-69
2023/09/19 05:51:35;;;;;;;8.18;2.40;;;13.70;99.90;;;;;;5020143;28;20043;-68
2023/09/19 05:54:07;;;;;;;6.93;1.65;;;13.80;99.90;;;;;;5036832;28;20520;-68
2023/09/19 05:56:32;;;;;;;6.95;2.40;;;13.80;99.90;;;;;;5054234;28;20041;-69
2023/09/19 05:58:59;;;;;;;10.63;2.33;;;13.80;99.90;;;;;;5054004;28;20044;-69
2023/09/19 06:01:25;;;;;;;6.93;2.17;;;13.80;99.90;;;;;;5054360;28;20049;-68
2023/09/19 06:03:50;;;;;;;6.38;2.45;;;13.80;99.90;;;;;;5054237;28;20129;-68
2023/09/19 06:06:16;;;;;;;9.02;2.15;;;13.80;99.90;;;;;;5036284;28;20049;-69
2023/09/19 06:08:44;;;;;;;7.68;2.60;;;13.80;99.90;;;;;;5036105;28;20025;-68
2023/09/19 06:11:10;;;;;;;9.63;2.63;;;13.80;99.90;;;;;;5036460;28;20044;-68
2023/09/19 06:13:39;;;;;;;8.80;2.22;;;13.80;99.90;;;;;;5054178;28;20037;-69
2023/09/19 06:16:04;;;;;;;12.88;2.80;;;13.90;99.90;;;;;;5054107;28;20049;-69
2023/09/19 06:18:33;;;;;;;10.55;2.80;;;13.90;99.90;;;;;;5052906;28;20501;-68
2023/09/19 06:20:59;;;;;;;7.20;2.80;;;13.90;99.90;;;;;;5036031;28;20120;-69
2023/09/19 06:23:26;;;;;;;9.05;2.28;;;13.90;99.90;;;;;;5053896;28;20056;-69
2023/09/19 06:25:53;;;;;;;11.77;2.10;;;14.00;99.90;;;;;;5053627;28;20055;-69
2023/09/19 06:28:23;;;;;;;13.80;3.13;;;14.00;99.90;;;;;;5053777;28;20048;-69
2023/09/19 06:30:49;;;;;;;11.82;2.28;;;14.10;99.90;;;;;;5047271;28;20128;-69
2023/09/19 06:33:15;;;;;;;12.80;2.47;;;14.10;99.90;;;;;;5050692;28;20091;-69
2023/09/19 06:35:41;;;;;;;8.30;2.35;;;14.10;99.90;;;;;;5053582;28;20041;-69
2023/09/19 06:38:07;;;;;;;11.52;2.63;;;14.20;99.90;;;;;;5053430;28;20037;-69
2023/09/19 06:40:34;;;;;;;12.18;3.55;;;14.20;99.90;;;;;;5053591;28;20052;-69
2023/09/19 06:43:02;;;;;;;12.85;2.55;;;14.30;99.90;;;;;;5046251;28;20036;-69
2023/09/19 06:45:28;;;;;;;9.90;2.53;;;14.40;99.90;;;;;;5041384;28;20463;-69
2023/09/19 06:47:55;;;;;;;8.52;2.63;;;14.40;99.90;;;;;;5033543;28;20037;-68
2023/09/19 06:50:25;;;;;;;8.18;2.63;;;14.40;99.90;;;;;;5033252;28;20045;-69
2023/09/19 06:52:53;;;;;;;9.60;2.83;;;14.40;99.90;;;;;;5015814;28;20069;-69
2023/09/19 06:55:20;;;;;;;8.40;2.75;;;14.50;99.90;;;;;;5015464;28;20060;-69
2023/09/19 06:57:49;;;;;;;8.93;2.17;;;14.50;99.90;;;;;;5033556;28;20052;-69
2023/09/19 07:00:18;;;;;;;12.13;2.58;;;14.70;99.90;;;;;;5033090;28;20516;-69
2023/09/19 07:03:01;;;;;;;8.18;2.50;;;14.90;99.90;;;;;;5033311;28;20048;-69
2023/09/19 07:05:31;;;;;;;10.25;2.40;;;15.00;99.90;;;;;;5034189;28;20042;-70
2023/09/19 07:08:00;;;;;;;10.13;2.83;;;15.10;99.90;;;;;;5042447;28;20052;-69
2023/09/19 07:10:27;;;;;;;11.77;3.10;;;15.30;99.90;;;;;;5032983;28;20045;-69
2023/09/19 07:13:00;;;;;;;14.45;2.65;;;15.40;99.90;;;;;;5015491;28;20123;-69
2023/09/19 07:15:26;;;;;;;12.07;2.72;;;15.50;99.90;;;;;;5015240;28;20142;-69
2023/09/19 07:17:53;;;;;;;11.60;2.70;;;15.60;99.90;;;;;;5015319;28;20440;-69
2023/09/19 07:20:20;;;;;;;11.82;2.25;;;15.70;99.90;;;;;;5032817;28;20041;-69
2023/09/19 07:22:47;;;;;;;9.13;3.05;;;15.80;99.90;;;;;;5015609;28;20408;-69
2023/09/19 07:25:14;;;;;;;8.68;2.35;;;15.80;99.90;;;;;;5015207;28;20046;-69
2023/09/19 07:27:41;;;;;;;8.80;2.20;;;15.80;99.90;;;;;;5032807;28;20497;-69
2023/09/19 07:30:08;;;;;;;9.10;2.63;;;15.80;99.90;;;;;;5032470;28;20033;-69
2023/09/19 07:32:36;;;;;;;9.60;2.10;;;15.90;99.90;;;;;;5033096;28;20045;-69
2023/09/19 07:35:02;;;;;;;9.30;2.13;;;15.80;99.90;;;;;;5053939;22;20046;-69
2023/09/19 07:37:31;;;;;;;7.53;2.20;;;15.80;99.90;;;;;;5032223;28;20044;-69
2023/09/19 07:39:56;;;;;;;8.60;2.08;;;15.70;99.90;;;;;;5031353;28;20043;-69
2023/09/19 07:42:22;;;;;;;7.60;2.60;;;15.70;99.90;;;;;;5013981;28;20037;-68
2023/09/19 07:44:50;;;;;;;11.85;2.75;;;15.70;99.90;;;;;;5032146;28;20037;-70
2023/09/19 07:47:16;;;;;;;11.30;2.80;;;15.70;99.90;;;;;;5032493;28;20049;-71
2023/09/19 07:49:42;;;;;;;12.77;2.83;;;15.70;99.90;;;;;;5032216;28;20091;-72
2023/09/19 07:52:09;;;;;;;11.25;2.20;;;15.90;99.90;;;;;;5032431;28;20061;-71
2023/09/19 07:54:35;;;;;;;7.72;2.70;;;15.90;99.90;;;;;;5032264;28;20033;-71
2023/09/19 07:57:01;;;;;;;10.73;2.47;;;15.90;99.90;;;;;;5032308;28;20124;-72
2023/09/19 07:59:27;;;;;;;10.95;2.20;;;16.10;99.90;;;;;;5031106;28;20044;-71
2023/09/19 08:01:53;;;;;;;10.73;2.60;;;16.00;99.90;;;;;;5031587;28;20041;-72
2023/09/19 08:04:19;;;;;;;8.07;2.10;;;16.10;99.90;;;;;;5014506;28;20045;-74
2023/09/19 08:06:45;;;;;;;10.43;3.05;;;16.00;99.90;;;;;;5013920;28;20045;-74
2023/09/19 08:09:12;;;;;;;7.40;2.03;;;15.90;99.90;;;;;;5014345;28;20504;-74
2023/09/19 08:11:39;;;;;;;8.48;1.80;;;15.90;99.90;;;;;;5014365;28;20048;-74
2023/09/19 08:14:05;;;;;;;5.55;1.70;;;15.80;99.90;;;;;;5014431;28;20045;-74
2023/09/19 08:16:31;;;;;;;10.43;2.85;;;15.90;99.90;;;;;;5014242;28;20054;-74
2023/09/19 08:18:57;;;;;;;9.30;2.00;;;16.10;99.90;;;;;;5031789;28;20413;-73
2023/09/19 08:21:23;;;;;;;10.77;2.55;;;16.30;99.90;;;;;;5032042;28;20041;-71
2023/09/19 08:23:50;;;;;;;9.75;1.83;;;16.40;99.90;;;;;;5014123;28;20529;-71
2023/09/19 08:26:15;;;;;;;8.07;2.25;;;16.50;99.90;;;;;;5013906;28;20170;-70
2023/09/19 08:28:41;;;;;;;9.90;2.40;;;16.60;99.90;;;;;;5013716;28;20037;-70
2023/09/19 08:31:08;;;;;;;9.80;2.33;;;16.60;99.90;;;;;;5031852;28;20413;-71
2023/09/19 08:33:38;;;;;;;9.77;2.33;;;16.90;99.90;;;;;;5031686;28;20033;-71
2023/09/19 08:36:04;;;;;;;6.47;1.90;;;17.00;99.90;;;;;;5013667;28;20505;-73
2023/09/19 08:38:33;;;;;;;8.18;2.17;;;17.00;99.90;;;;;;5031457;28;20045;-73
2023/09/19 08:40:59;;;;;;;7.80;2.28;;;16.90;99.90;;;;;;5026425;28;20050;-73
2023/09/19 08:43:28;;;;;;;9.25;2.50;;;16.80;99.90;;;;;;5011641;28;20038;-73
2023/09/19 08:46:14;;;;;;;11.63;2.63;;;16.80;99.90;;;;;;4977908;28;20042;-72
2023/09/19 08:48:56;;;;;;;7.03;2.40;;;16.70;99.90;;;;;;5011725;28;20049;-72
2023/09/19 08:51:30;;;;;;;10.88;2.58;;;16.80;99.90;;;;;;5011909;28;20042;-73
2023/09/19 08:54:06;;;;;;;10.15;2.78;;;16.80;99.90;;;;;;4994591;28;20100;-73
2023/09/19 08:56:33;;;;;;;14.13;3.13;;;16.90;99.90;;;;;;5012013;28;20046;-73
2023/09/19 08:59:07;;;;;;;15.20;2.88;;;16.90;99.90;;;;;;5011572;28;20120;-73
2023/09/19 09:01:33;;;;;;;9.23;3.30;;;16.80;99.90;;;;;;5011763;28;20046;-73
2023/09/19 09:04:00;;;;;;;9.93;2.55;;;16.80;99.90;;;;;;4994016;28;20053;-73
2023/09/19 09:06:27;;;;;;;7.55;3.40;;;16.80;99.90;;;;;;4994263;28;20096;-73
2023/09/19 09:08:54;;;;;;;17.02;3.58;;;16.80;99.90;;;;;;4994207;28;20113;-73
2023/09/19 09:11:20;;;;;;;10.77;3.05;;;16.90;99.90;;;;;;4977834;28;20045;-73
2023/09/19 09:13:47;;;;;;;12.90;3.05;;;16.90;99.90;;;;;;5011720;28;20092;-74
2023/09/19 09:16:17;;;;;;;12.82;3.03;;;17.00;99.90;;;;;;4994105;28;20053;-74
2023/09/19 09:18:44;;;;;;;13.48;3.95;;;17.20;99.90;;;;;;5010780;28;20104;-74
2023/09/19 09:21:10;;;;;;;12.85;4.57;;;17.30;99.90;;;;;;4994288;28;20120;-74
2023/09/19 09:23:36;;;;;;;12.88;3.95;;;17.30;99.90;;;;;;5011455;28;20096;-74
2023/09/19 09:26:02;;;;;;;16.48;3.58;;;17.30;99.90;;;;;;4993770;28;20048;-74
2023/09/19 09:28:30;;;;;;;9.65;3.08;;;17.20;99.90;;;;;;4977534;28;20061;-74
2023/09/19 09:30:58;;;;;;;10.75;3.38;;;17.20;99.90;;;;;;5011231;28;20052;-74
2023/09/19 09:33:24;;;;;;;10.35;3.88;;;17.20;99.90;;;;;;5013017;28;20042;-74
2023/09/19 09:36:00;;;;;;;10.38;2.88;;;17.30;99.90;;;;;;5030846;28;20416;-74
2023/09/19 09:38:28;;;;;;;15.15;3.45;;;17.40;99.90;;;;;;5013378;28;20492;-74
2023/09/19 09:41:03;;;;;;;9.80;3.45;;;17.50;99.90;;;;;;5012998;28;20520;-74
2023/09/19 09:43:36;;;;;;;15.30;4.10;;;17.60;99.90;;;;;;5013068;28;20037;-74
2023/09/19 09:49:15;;;;;;;8.60;2.85;;;17.80;99.90;;;;;;5013266;28;20037;-73
2023/09/19 09:51:57;;;;;;;;;;;17.80;99.90;;;;;;5031458;28;20392;-73
2023/09/19 09:54:24;;;;;;;14.90;3.25;;;17.70;99.90;;;;;;5031437;28;19917;-73
2023/09/19 09:56:59;;;;;;;7.05;2.13;;;17.80;99.90;;;;;;4998943;28;20054;-73
2023/09/19 09:59:46;;;;;;;8.52;2.67;;;17.90;99.90;;;;;;5034231;28;20153;-74
2023/09/19 10:02:25;;;;;;;11.38;3.95;;;17.90;99.90;;;;;;5027811;28;20501;-73
2023/09/19 10:04:52;;;;;;;13.00;2.78;;;17.80;99.90;;;;;;5034563;28;20044;-73
2023/09/19 10:07:32;;;;;;;5.63;1.80;;;17.70;99.90;;;;;;5016544;28;20057;-73
2023/09/19 10:10:05;;;;;;;17.75;3.17;;;17.60;99.90;;;;;;5033898;28;20069;-72
2023/09/19 10:12:33;;;;;;;8.95;2.42;;;17.50;99.90;;;;;;5025959;28;20030;-73
2023/09/19 10:15:02;;;;;;;11.40;2.67;;;17.50;99.90;;;;;;5016643;28;20037;-73
2023/09/19 10:17:31;;;;;;;13.02;2.63;;;17.50;99.90;;;;;;5034325;28;20045;-73
2023/09/19 10:20:00;;;;;;;12.68;4.07;;;17.50;99.90;;;;;;5016259;28;20045;-73
2023/09/19 10:22:26;;;;;;;10.73;3.08;;;17.60;99.90;;;;;;5034131;28;20052;-73
2023/09/19 10:24:55;;;;;;;10.40;2.97;;;17.70;99.90;;;;;;5016135;28;20393;-73
2023/09/19 10:27:22;;;;;;;9.48;2.50;;;17.70;99.90;;;;;;4999731;28;20042;-72
2023/09/19 10:29:55;;;;;;;14.60;2.75;;;17.70;99.90;;;;;;5033785;28;20033;-73
2023/09/19 10:32:23;;;;;;;9.48;2.08;;;17.70;99.90;;;;;;5034118;28;20041;-72
2023/09/19 10:34:49;;;;;;;8.65;2.30;;;17.60;99.90;;;;;;5033677;28;20041;-73
2023/09/19 10:37:16;;;;;;;11.00;3.25;;;17.70;99.90;;;;;;5033810;28;20041;-73
2023/09/19 10:39:46;;;;;;;8.98;2.53;;;17.60;99.90;;;;;;5033300;28;20045;-73
2023/09/19 10:42:18;;;;;;;12.68;3.80;;;17.80;99.90;;;;;;5016024;28;20493;-73
2023/09/19 10:44:47;;;;;;;13.27;3.03;;;17.90;99.90;;;;;;5033789;28;20048;-74
2023/09/19 10:47:14;;;;;;;14.50;3.33;;;18.20;99.90;;;;;;5015492;28;20034;-74
2023/09/19 10:49:46;;;;;;;6.32;2.20;;;18.30;99.90;;;;;;4994769;28;20121;-74
2023/09/19 10:52:18;;;;;;;10.30;3.40;;;18.40;99.90;;;;;;5006409;28;20045;-73
2023/09/19 10:54:51;;;;;;;8.45;2.97;;;18.40;99.90;;;;;;4990150;28;20042;-73
2023/09/19 10:57:28;;;;;;;11.45;4.00;;;18.50;99.90;;;;;;5026097;28;20042;-73
2023/09/19 11:03:32;;;;;;;11.88;3.15;;;18.40;99.90;;;;;;5013713;28;20085;-74
2023/09/19 11:06:09;;;;;;;9.27;2.47;;;18.50;99.90;;;;;;4947478;28;20054;-74
2023/09/19 11:09:21;;;;;;;10.88;3.33;;;18.50;99.90;;;;;;4971302;28;20539;-73
2023/09/19 11:11:46;;;;;;;6.78;2.25;;;18.60;99.90;;;;;;5007316;28;20100;-73
2023/09/19 11:14:24;;;;;;;11.43;3.63;;;18.50;99.90;;;;;;4979231;28;20081;-73
2023/09/19 11:17:11;;;;;;;11.75;2.22;;;18.50;99.90;;;;;;5012938;28;20107;-73
2023/09/19 11:22:48;;;;;;;7.72;2.75;;;18.50;99.90;;;;;;5013101;28;20044;-73
2023/09/19 11:25:47;;;;;;;10.60;2.53;;;18.50;99.90;;;;;;4994954;28;20504;-73
2023/09/19 11:30:40;;;;;;;18.00;3.15;;;18.50;99.90;;;;;;5012438;28;20541;-74
2023/09/19 11:33:33;;;;;;;9.98;2.80;;;18.40;99.90;;;;;;5012820;28;20034;-74
2023/09/19 11:36:03;;;;;;;;;;;18.40;99.90;;;;;;5012847;28;20073;-73
2023/09/19 11:38:44;;;;;;;6.68;2.38;;;18.40;99.90;;;;;;4995214;28;19923;-73
2023/09/19 11:41:22;;;;;;;7.15;2.40;;;18.50;99.90;;;;;;5012694;28;20593;-73
2023/09/19 11:44:17;;;;;;;14.23;3.78;;;18.50;99.90;;;;;;5012534;28;20472;-74
2023/09/19 11:46:55;;;;;;;9.35;2.42;;;18.60;99.90;;;;;;4994763;28;20042;-73
2023/09/19 11:49:32;;;;;;;8.18;2.67;;;18.50;99.90;;;;;;5016391;28;20071;-73
2023/09/19 11:52:05;;;;;;;10.27;2.67;;;18.50;99.90;;;;;;5020442;28;20431;-72
2023/09/19 11:54:32;;;;;;;10.55;2.58;;;18.40;99.90;;;;;;4994820;28;20552;-73
2023/09/19 11:56:59;;;;;;;7.72;2.55;;;18.40;99.90;;;;;;4994840;28;20042;-72
2023/09/19 11:59:28;;;;;;;9.68;2.20;;;18.40;99.90;;;;;;5011937;28;20042;-72
2023/09/19 12:02:00;;;;;;;7.28;2.58;;;18.60;99.90;;;;;;5020804;28;20042;-73
2023/09/19 12:04:41;;;;;;;12.10;4.18;;;18.60;99.90;;;;;;5016638;28;20046;-72
2023/09/19 12:07:10;;;;;;;8.35;2.30;;;18.60;99.90;;;;;;4994560;28;20047;-73
2023/09/19 12:09:40;;;;;;;11.10;2.42;;;18.60;99.90;;;;;;5011922;28;20064;-73
2023/09/19 12:12:06;;;;;;;8.02;2.40;;;18.50;99.90;;;;;;4995270;28;20053;-72
2023/09/19 12:14:33;;;;;;;12.63;2.78;;;18.50;99.90;;;;;;5037890;28;20104;-71
2023/09/19 12:17:01;;;;;;;11.43;2.70;;;18.40;99.90;;;;;;5036968;28;20038;-71
2023/09/19 12:19:27;;;;;;;10.50;2.45;;;18.40;99.90;;;;;;5025307;28;20112;-71
2023/09/19 12:21:57;;;;;;;13.98;2.72;;;18.50;99.90;;;;;;5038524;28;20076;-71
2023/09/19 12:24:26;;;;;;;10.30;3.67;;;18.40;99.90;;;;;;5041711;28;20385;-73
2023/09/19 12:26:56;;;;;;;6.25;1.95;;;18.40;99.90;;;;;;5015905;28;20064;-74
2023/09/19 12:29:22;;;;;;;11.15;2.28;;;18.30;99.90;;;;;;5031084;28;20042;-73
2023/09/19 12:32:00;;;;;;;7.72;2.90;;;18.30;99.90;;;;;;5014595;28;20164;-74
2023/09/19 12:34:30;;;;;;;9.85;2.28;;;18.30;99.90;;;;;;5013759;28;20042;-74
2023/09/19 12:37:29;;;;;;;10.40;2.35;;;18.10;99.90;;;;;;5129721;27;20445;-73
2023/09/19 12:40:17;;;;;;;9.13;2.38;;;18.20;99.90;;;;;;5133080;27;20521;-73
2023/09/19 12:42:44;;;;;;;7.20;2.20;;;18.10;99.90;;;;;;5151528;27;20044;-72
2023/09/19 12:45:13;;;;;;;9.75;3.05;;;18.20;99.90;;;;;;5150865;27;20123;-72
2023/09/19 12:47:40;;;;;;;7.50;1.90;;;18.30;99.90;;;;;;5108815;28;20070;-73
2023/09/19 12:50:13;;;;;;;6.88;1.98;;;18.40;99.90;;;;;;5109115;28;20040;-72
2023/09/19 12:52:39;;;;;;;;;;;18.50;99.90;;;;;;5108554;28;20047;-72
2023/09/19 12:55:07;;;;;;;5.22;2.03;;;18.40;99.90;;;;;;5107734;28;20382;-72
2023/09/19 12:57:34;;;;;;;7.50;1.85;;;18.40;99.90;;;;;;5109471;28;20474;-72
2023/09/19 13:00:10;;;;;;;9.65;2.17;;;18.40;99.90;;;;;;5108944;28;20065;-72
2023/09/19 13:02:36;;;;;;;13.75;1.90;;;18.30;99.90;;;;;;5142233;27;20036;-72
2023/09/19 13:05:04;;;;;;;11.38;2.80;;;18.40;99.90;;;;;;5142045;27;20040;-73
2023/09/19 13:07:45;;;;;;;7.75;2.15;;;18.30;99.90;;;;;;5107734;28;20044;-73